createdAt,value
2023-03-26T00:03:03.246Z,5.13
2023-03-26T00:07:05.102Z,6.17
2023-03-26T00:11:08.743Z,6.03
2023-03-26T00:15:10.497Z,5.97
2023-03-26T00:19:12.596Z,5.77
2023-03-26T00:23:14.069Z,6.53
2023-03-26T00:27:15.381Z,5.63
2023-03-26T00:31:17.542Z,5.90
2023-03-26T00:35:19.000Z,7.43
2023-03-26T00:39:21.754Z,9.10
2023-03-26T00:43:23.658Z,7.70
2023-03-26T00:47:26.172Z,6.80
2023-03-26T00:51:28.578Z,7.87
2023-03-26T00:55:30.028Z,6.80
2023-03-26T00:59:31.874Z,6.70
2023-03-26T01:03:35.765Z,6.20
2023-03-26T01:07:37.381Z,6.47
2023-03-26T01:11:38.784Z,7.93
2023-03-26T01:15:41.808Z,6.70
2023-03-26T01:20:19.237Z,8.77
2023-03-26T01:24:22.012Z,6.13
2023-03-26T01:28:25.244Z,6.83
2023-03-26T01:33:14.256Z,6.87
2023-03-26T01:37:52.994Z,6.37
2023-03-26T01:42:02.775Z,6.40
2023-03-26T01:46:08.452Z,6.33
2023-03-26T01:50:10.482Z,6.83
2023-03-26T01:54:19.760Z,7.27
2023-03-26T01:58:43.176Z,5.77
2023-03-26T02:03:08.844Z,7.40
2023-03-26T02:07:20.997Z,6.83
2023-03-26T02:11:23.294Z,5.97
2023-03-26T02:15:25.031Z,6.47
2023-03-26T02:19:26.697Z,7.40
2023-03-26T02:23:29.575Z,6.57
2023-03-26T02:27:31.026Z,5.83
2023-03-26T02:31:32.429Z,6.77
2023-03-26T02:35:33.929Z,5.20
2023-03-26T02:39:36.232Z,6.83
2023-03-26T02:43:37.525Z,5.27
2023-03-26T02:47:39.132Z,5.50
2023-03-26T02:51:40.718Z,6.57
2023-03-26T02:55:42.081Z,8.00
2023-03-26T02:59:46.279Z,5.90
2023-03-26T03:03:47.646Z,5.47
2023-03-26T03:07:49.047Z,5.13
2023-03-26T03:11:53.840Z,4.73
2023-03-26T03:15:56.101Z,4.93
2023-03-26T03:19:57.951Z,4.50
2023-03-26T03:23:59.758Z,10.73
2023-03-26T03:28:02.378Z,6.53
2023-03-26T03:32:03.961Z,5.77
2023-03-26T03:36:10.463Z,5.60
2023-03-26T03:40:21.691Z,4.40
2023-03-26T03:44:23.193Z,5.37
2023-03-26T03:48:24.598Z,5.03
2023-03-26T03:52:27.930Z,5.50
2023-03-26T03:56:29.292Z,5.07
2023-03-26T04:00:30.654Z,4.50
2023-03-26T04:04:32.900Z,4.87
2023-03-26T04:08:34.867Z,4.73
2023-03-26T04:12:36.329Z,5.40
2023-03-26T04:16:37.894Z,4.67
2023-03-26T04:20:46.645Z,5.50
2023-03-26T04:24:49.609Z,5.63
2023-03-26T04:28:56.644Z,5.00
2023-03-26T04:32:58.660Z,4.77
2023-03-26T04:37:02.528Z,4.37
2023-03-26T04:41:07.472Z,4.57
2023-03-26T04:45:10.896Z,4.77
2023-03-26T04:49:12.290Z,4.40
2023-03-26T04:53:19.179Z,4.30
2023-03-26T04:57:37.113Z,4.87
2023-03-26T05:01:40.099Z,4.60
2023-03-26T05:05:41.617Z,4.30
2023-03-26T05:09:42.919Z,4.73
2023-03-26T05:13:44.283Z,4.60
2023-03-26T05:17:46.640Z,5.97
2023-03-26T05:21:48.228Z,4.53
2023-03-26T05:25:49.684Z,4.70
2023-03-26T05:29:51.234Z,5.40
2023-03-26T05:33:53.003Z,4.70
2023-03-26T05:37:54.493Z,4.43
2023-03-26T05:41:56.313Z,4.60
2023-03-26T05:45:57.698Z,4.23
2023-03-26T05:49:59.300Z,5.63
2023-03-26T05:54:00.986Z,9.13
2023-03-26T05:58:02.769Z,9.37
2023-03-26T06:02:04.189Z,9.80
2023-03-26T06:06:11.823Z,9.20
2023-03-26T06:10:18.018Z,8.43
2023-03-26T06:14:19.966Z,9.20
2023-03-26T06:18:22.867Z,7.87
2023-03-26T06:22:24.386Z,8.07
2023-03-26T06:26:25.875Z,7.63
2023-03-26T06:30:27.279Z,7.83
2023-03-26T06:34:28.671Z,8.07
2023-03-26T06:38:30.220Z,8.43
2023-03-26T06:43:06.722Z,7.50
2023-03-26T06:46:52.894Z,7.10
2023-03-26T06:50:54.856Z,7.10
2023-03-26T06:54:56.633Z,7.50
2023-03-26T06:58:58.246Z,7.37
2023-03-26T07:02:59.621Z,6.63
2023-03-26T07:07:01.122Z,6.03
2023-03-26T07:11:02.641Z,6.33
2023-03-26T07:15:04.622Z,6.60
2023-03-26T07:19:06.061Z,6.97
2023-03-26T07:23:07.958Z,6.90
2023-03-26T07:27:37.505Z,7.50
2023-03-26T07:31:52.333Z,6.03
2023-03-26T07:36:11.733Z,6.27
2023-03-26T07:40:50.900Z,7.33
2023-03-26T07:45:15.781Z,6.50
2023-03-26T07:49:17.782Z,5.83
2023-03-26T07:53:20.021Z,6.30
2023-03-26T07:57:39.819Z,6.87
2023-03-26T08:01:44.218Z,7.33
2023-03-26T08:05:52.095Z,7.20
2023-03-26T08:10:10.460Z,6.90
2023-03-26T08:14:21.811Z,7.30
2023-03-26T08:18:48.596Z,6.53
2023-03-26T08:22:57.277Z,7.03
2023-03-26T08:27:37.767Z,8.07
2023-03-26T08:31:43.651Z,7.20
2023-03-26T08:35:46.045Z,8.03
2023-03-26T08:39:47.452Z,7.13
2023-03-26T08:44:00.877Z,6.97
2023-03-26T08:48:23.705Z,6.87
2023-03-26T08:52:34.292Z,6.33
2023-03-26T08:56:46.206Z,7.37
2023-03-26T09:01:02.527Z,8.83
2023-03-26T09:05:34.521Z,8.37
2023-03-26T09:10:09.061Z,5.80
2023-03-26T09:14:35.738Z,5.23
2023-03-26T09:18:42.716Z,4.70
2023-03-26T09:23:13.954Z,4.47
2023-03-26T09:27:35.829Z,3.47
2023-03-26T09:31:59.619Z,3.73
2023-03-26T09:36:19.557Z,3.93
2023-03-26T09:40:36.807Z,4.13
2023-03-26T09:44:59.659Z,3.83
2023-03-26T09:49:27.544Z,5.20
2023-03-26T09:54:07.602Z,3.93
2023-03-26T09:58:41.281Z,3.60
2023-03-26T10:03:07.698Z,3.80
2023-03-26T10:07:36.593Z,4.07
2023-03-26T10:12:00.943Z,4.00
2023-03-26T10:16:26.233Z,4.17
2023-03-26T10:20:37.743Z,3.80
2023-03-26T10:24:45.836Z,3.50
2023-03-26T10:29:13.913Z,3.97
2023-03-26T10:37:37.529Z,4.00
2023-03-26T10:41:53.974Z,4.00
2023-03-26T10:46:23.806Z,4.63
2023-03-26T10:50:49.882Z,3.73
2023-03-26T10:55:14.152Z,3.97
2023-03-26T10:59:17.615Z,3.80
2023-03-26T11:03:31.522Z,3.57
2023-03-26T11:07:52.321Z,4.03
2023-03-26T11:11:56.722Z,3.33
2023-03-26T11:16:05.358Z,3.77
2023-03-26T11:20:16.836Z,3.60
2023-03-26T11:24:36.466Z,3.53
2023-03-26T11:29:03.474Z,3.70
2023-03-26T11:33:16.844Z,3.87
2023-03-26T11:37:38.561Z,4.07
2023-03-26T11:41:39.854Z,3.70
2023-03-26T11:45:46.510Z,3.90
2023-03-26T11:49:51.786Z,3.73
2023-03-26T11:53:54.426Z,3.87
2023-03-26T11:57:59.223Z,4.40
2023-03-26T12:02:09.842Z,4.47
2023-03-26T12:06:32.867Z,4.27
2023-03-26T12:10:38.748Z,3.97
2023-03-26T12:14:42.460Z,3.80
2023-03-26T12:18:45.630Z,3.30
2023-03-26T12:22:47.953Z,4.00
2023-03-26T12:26:57.878Z,3.63
2023-03-26T12:31:03.196Z,3.50
2023-03-26T12:35:07.500Z,4.37
2023-03-26T12:40:10.632Z,4.47
2023-03-26T12:44:50.184Z,3.73
2023-03-26T12:48:17.074Z,4.50
2023-03-26T12:52:33.246Z,4.57
2023-03-26T12:57:12.250Z,5.00
2023-03-26T13:01:33.156Z,4.00
2023-03-26T13:05:50.863Z,3.70
2023-03-26T13:10:10.454Z,4.23
2023-03-26T13:14:14.800Z,4.83
2023-03-26T13:18:21.897Z,4.73
2023-03-26T13:22:56.326Z,3.60
2023-03-26T13:27:06.767Z,3.70
2023-03-26T13:31:21.822Z,3.80
2023-03-26T13:35:42.138Z,4.23
2023-03-26T13:40:22.184Z,4.70
2023-03-26T13:45:04.532Z,3.93
2023-03-26T13:49:13.901Z,3.73
2023-03-26T13:53:24.222Z,4.40
2023-03-26T13:57:33.372Z,4.10
2023-03-26T14:01:41.161Z,4.50
2023-03-26T14:05:47.068Z,4.60
2023-03-26T14:10:01.444Z,4.30
2023-03-26T14:14:12.044Z,3.77
2023-03-26T14:18:38.148Z,3.83
2023-03-26T14:23:00.920Z,2.93
2023-03-26T14:27:15.546Z,3.43
2023-03-26T14:31:20.561Z,3.80
2023-03-26T14:35:34.935Z,3.60
2023-03-26T14:39:42.127Z,3.40
2023-03-26T14:44:03.461Z,3.77
2023-03-26T14:48:23.013Z,3.00
2023-03-26T14:53:01.138Z,2.80
2023-03-26T14:57:25.125Z,2.80
2023-03-26T15:01:29.539Z,2.20
2023-03-26T15:05:46.587Z,2.50
2023-03-26T15:10:15.471Z,2.10
2023-03-26T15:14:38.474Z,1.97
2023-03-26T15:19:08.196Z,1.80
2023-03-26T15:23:26.980Z,2.10
2023-03-26T15:27:50.404Z,2.10
2023-03-26T15:32:04.983Z,2.10
2023-03-26T15:36:44.661Z,1.77
2023-03-26T15:41:13.735Z,2.10
2023-03-26T15:45:38.718Z,2.00
2023-03-26T15:50:13.965Z,2.00
2023-03-26T15:54:31.566Z,2.13
2023-03-26T15:59:20.571Z,2.30
2023-03-26T16:03:34.344Z,2.20
2023-03-26T16:08:15.732Z,2.20
2023-03-26T16:12:17.113Z,2.40
2023-03-26T16:16:24.163Z,2.10
2023-03-26T16:20:34.972Z,1.90
2023-03-26T16:24:44.433Z,2.40
2023-03-26T16:28:45.753Z,2.13
2023-03-26T16:33:18.772Z,2.17
2023-03-26T16:37:37.274Z,2.30
2023-03-26T16:41:38.522Z,2.07
2023-03-26T16:45:45.868Z,2.70
2023-03-26T16:50:07.409Z,2.67
2023-03-26T16:54:41.034Z,2.30
2023-03-26T16:58:56.215Z,3.00
2023-03-26T17:03:28.124Z,2.60
2023-03-26T17:07:38.814Z,2.90
2023-03-26T17:11:50.832Z,3.00
2023-03-26T17:16:12.533Z,3.67
2023-03-26T17:20:33.314Z,3.67
2023-03-26T17:24:53.562Z,3.90
2023-03-26T17:29:09.819Z,3.40
2023-03-26T17:33:23.145Z,3.13
2023-03-26T17:37:26.360Z,3.10
2023-03-26T17:41:51.200Z,3.20
2023-03-26T17:46:02.668Z,3.43
2023-03-26T17:50:13.652Z,3.60
2023-03-26T17:54:22.506Z,3.40
2023-03-26T17:58:23.975Z,3.60
2023-03-26T18:02:34.379Z,4.47
2023-03-26T18:06:49.636Z,4.53
2023-03-26T18:11:03.075Z,4.70
2023-03-26T18:15:22.489Z,4.70
2023-03-26T18:19:24.992Z,5.67
2023-03-26T18:23:36.638Z,7.73
2023-03-26T18:27:40.833Z,6.73
2023-03-26T18:31:42.971Z,7.03
2023-03-26T18:35:54.328Z,6.87
2023-03-26T18:39:59.071Z,5.90
2023-03-26T18:44:05.698Z,6.20
2023-03-26T18:48:17.727Z,6.80
2023-03-26T18:52:20.777Z,6.40
2023-03-26T18:56:36.141Z,6.57
2023-03-26T19:00:40.086Z,6.63
2023-03-26T19:04:46.062Z,7.43
2023-03-26T19:08:48.770Z,7.00
2023-03-26T19:12:58.421Z,8.00
2023-03-26T19:17:02.579Z,9.50
2023-03-26T19:21:04.551Z,9.80
2023-03-26T19:25:16.519Z,9.93
2023-03-26T19:29:26.088Z,8.93
2023-03-26T19:33:34.972Z,7.00
2023-03-26T19:37:50.255Z,5.67
2023-03-26T19:41:52.812Z,6.63
2023-03-26T19:45:59.989Z,6.13
2023-03-26T19:50:26.242Z,6.47
2023-03-26T19:54:30.418Z,6.03
2023-03-26T19:58:33.141Z,6.60
2023-03-26T20:02:34.637Z,6.00
2023-03-26T20:06:43.295Z,5.63
2023-03-26T20:10:45.639Z,4.87
2023-03-26T20:14:48.338Z,5.40
2023-03-26T20:18:50.659Z,5.10
2023-03-26T20:22:55.214Z,5.47
2023-03-26T20:26:56.642Z,5.33
2023-03-26T20:30:58.172Z,5.00
2023-03-26T20:34:59.740Z,5.13
2023-03-26T20:39:03.222Z,4.87
2023-03-26T20:43:09.649Z,4.90
2023-03-26T20:47:11.464Z,5.40
2023-03-26T20:51:14.829Z,5.23
2023-03-26T20:55:22.223Z,4.67
2023-03-26T20:59:28.785Z,4.63
2023-03-26T21:03:41.496Z,4.67
2023-03-26T21:07:49.395Z,4.47
2023-03-26T21:12:24.838Z,5.00
2023-03-26T21:16:29.997Z,4.70
2023-03-26T21:25:20.749Z,4.57
2023-03-26T21:29:26.162Z,4.63
2023-03-26T21:33:28.391Z,4.43
2023-03-26T21:37:30.947Z,5.03
2023-03-26T21:41:41.296Z,4.77
2023-03-26T21:45:43.768Z,5.60
2023-03-26T21:49:45.505Z,5.50
2023-03-26T21:53:47.425Z,4.83
2023-03-26T21:58:13.582Z,5.57
2023-03-26T22:02:27.065Z,4.97
2023-03-26T22:07:04.205Z,5.50
2023-03-26T22:11:07.257Z,5.00
2023-03-26T22:15:09.033Z,5.47
2023-03-26T22:19:12.447Z,5.37
2023-03-26T22:23:14.589Z,4.83
2023-03-26T22:27:16.019Z,5.07
2023-03-26T22:31:17.597Z,5.77
2023-03-26T22:35:19.925Z,4.70
2023-03-26T22:39:21.505Z,5.63
2023-03-26T22:43:24.620Z,5.30
2023-03-26T22:47:25.928Z,4.47
2023-03-26T22:51:34.398Z,5.27
2023-03-26T22:55:59.138Z,4.37
2023-03-26T23:00:12.270Z,4.33
2023-03-26T23:08:54.709Z,5.33
2023-03-26T23:12:56.176Z,4.23
2023-03-26T23:16:58.296Z,4.50
2023-03-26T23:21:00.037Z,4.67
2023-03-26T23:25:01.925Z,4.60
2023-03-26T23:29:04.890Z,4.50
2023-03-26T23:33:06.410Z,4.60
2023-03-26T23:37:10.906Z,5.00
2023-03-26T23:41:16.464Z,4.57
2023-03-26T23:45:17.749Z,5.37
2023-03-26T23:49:19.356Z,4.80
2023-03-26T23:53:24.304Z,4.80
2023-03-26T23:57:27.942Z,5.10
